Terminal Aerodrome Forecast
Issued by NWS Quad Cities IA IL

Home | Current Version | Previous Version | Text Only | Print | Product List | Glossary On
Versions: 1 2 3 4 5 6 7 8 9 10 11 12 13 14 15 16 17 18 19 20 21 22 23 24 25
518
FTUS43 KDVN 231101 AAA
TAFDBQ
TAF AMD
KDBQ 231101Z 2311/2406 22010KT 4SM BR OVC004
     FM231500 30007KT P6SM SCT010 BKN035
      TEMPO 2315/2318 BKN015
     FM231800 33006KT P6SM -RA OVC025=

USA.gov is the U.S. government's official web portal to all federal, state and local government web resources and services.